Guntersville Observed Data For Previous 48 Hours

Caption
Day and Hour Reservoir Elevation (behind dam)* Tailwater Elevation (below dam)* Average Hourly Discharge*
7/14/2018 1 AM CDT 594.89 556.28 12,319
7/14/2018 2 AM CDT 594.92 556.33 12,046
7/14/2018 3 AM CDT 594.94 556.33 12,046
7/14/2018 4 AM CDT 594.87 556.35 12,096
7/14/2018 5 AM CDT 594.83 556.35 12,132
7/14/2018 6 AM CDT 594.78 556.38 12,037
7/14/2018 7 AM CDT 594.69 556.78 19,990
7/14/2018 8 AM CDT 594.65 556.78 21,047
7/14/2018 9 AM CDT 594.61 556.88 21,274
7/14/2018 10 AM CDT 594.62 556.81 21,574
7/14/2018 11 AM CDT 594.65 556.78 21,455
7/14/2018 12 PM CDT 594.67 556.78 21,634
7/14/2018 1 PM CDT 594.67 556.76 21,558
7/14/2018 2 PM CDT 594.66 556.75 21,606
7/14/2018 3 PM CDT 594.62 556.72 21,658
7/14/2018 4 PM CDT 594.57 556.55 21,680
7/14/2018 5 PM CDT 594.65 556.62 22,459
7/14/2018 6 PM CDT 594.68 556.73 22,413
7/14/2018 7 PM CDT 594.74 556.78 22,391
7/14/2018 8 PM CDT 594.76 556.78 22,498
7/14/2018 9 PM CDT 594.75 556.69 22,570
7/14/2018 10 PM CDT 594.79 556.68 22,755
7/14/2018 11 PM CDT 594.78 556.65 22,729
7/15/2018 12 AM CDT 594.79 556.64 22,658
7/15/2018 1 AM CDT 594.76 556.60 22,605
7/15/2018 2 AM CDT 594.73 556.63 22,733
7/15/2018 3 AM CDT 594.70 556.61 22,680
7/15/2018 4 AM CDT 594.67 556.59 22,641
7/15/2018 5 AM CDT 594.66 556.58 22,631
7/15/2018 6 AM CDT 594.62 556.54 22,571
7/15/2018 7 AM CDT 594.55 556.54 22,531
7/15/2018 8 AM CDT 594.49 556.48 22,558
7/15/2018 9 AM CDT 594.45 556.47 22,610
7/15/2018 10 AM CDT 594.45 556.45 22,676
7/15/2018 11 AM CDT 594.47 556.45 22,592
7/15/2018 12 PM CDT 594.47 556.43 22,358
7/15/2018 1 PM CDT 594.51 556.55 21,861
7/15/2018 2 PM CDT 594.42 556.53 21,026
7/15/2018 3 PM CDT 594.43 556.48 20,960
7/15/2018 4 PM CDT 594.41 556.63 21,061
7/15/2018 5 PM CDT 594.54 556.46 20,628
7/15/2018 6 PM CDT 594.53 556.36 20,683
7/15/2018 7 PM CDT 594.51 556.34 20,910
7/15/2018 8 PM CDT 594.51 556.42 20,991
7/15/2018 9 PM CDT 594.54 556.35 21,042
7/15/2018 10 PM CDT 594.54 556.43 20,908
7/15/2018 11 PM CDT 594.60 556.35 20,732
7/16/2018 12 AM CDT 594.57 556.38 20,646
7/16/2018 1 AM CDT 594.60 556.37 20,581

Elevations are in feet above sea level. Discharges are in cubic feet per second and are reported at the end of the hour.